createdAt,value
2023-02-28T00:01:29.705Z,41.34
2023-02-28T00:03:57.983Z,42.04
2023-02-28T00:06:25.437Z,42.05
2023-02-28T00:08:53.176Z,41.99
2023-02-28T00:11:20.845Z,41.80
2023-02-28T00:13:48.851Z,42.07
2023-02-28T00:16:21.444Z,42.02
2023-02-28T00:18:49.538Z,42.25
2023-02-28T00:21:17.429Z,41.39
2023-02-28T00:23:44.929Z,41.80
2023-02-28T00:26:12.822Z,41.53
2023-02-28T00:28:40.353Z,42.11
2023-02-28T00:31:07.801Z,42.07
2023-02-28T00:33:36.374Z,41.84
2023-02-28T00:36:09.529Z,42.20
2023-02-28T00:38:38.653Z,42.34
2023-02-28T00:41:06.537Z,42.66
2023-02-28T00:43:35.398Z,42.62
2023-02-28T00:46:03.875Z,42.33
2023-02-28T00:48:31.538Z,42.36
2023-02-28T00:50:58.931Z,42.60
2023-02-28T00:53:26.672Z,43.00
2023-02-28T00:55:54.258Z,42.79
2023-02-28T00:58:21.801Z,43.03
2023-02-28T01:00:49.929Z,42.80
2023-02-28T01:03:18.757Z,42.10
2023-02-28T01:05:46.852Z,42.13
2023-02-28T01:08:15.684Z,42.57
2023-02-28T01:10:43.464Z,42.28
2023-02-28T01:13:13.233Z,41.64
2023-02-28T01:15:43.383Z,41.21
2023-02-28T01:18:12.156Z,42.14
2023-02-28T01:20:39.661Z,42.71
2023-02-28T01:23:07.430Z,42.66
2023-02-28T01:25:36.304Z,42.70
2023-02-28T01:28:06.780Z,41.81
2023-02-28T01:30:35.421Z,41.92
2023-02-28T01:33:03.185Z,42.32
2023-02-28T01:35:34.516Z,42.32
2023-02-28T01:38:20.540Z,41.79
2023-02-28T01:40:48.838Z,42.17
2023-02-28T01:43:24.592Z,42.77
2023-02-28T01:45:53.612Z,42.88
2023-02-28T01:48:27.114Z,42.96
2023-02-28T01:50:56.120Z,42.76
2023-02-28T01:53:31.460Z,42.79
2023-02-28T01:55:59.172Z,42.31
2023-02-28T01:58:26.957Z,43.14
2023-02-28T02:00:54.335Z,43.34
2023-02-28T02:03:22.126Z,42.78
2023-02-28T02:05:49.669Z,43.11
2023-02-28T02:08:24.189Z,43.19
2023-02-28T02:11:01.314Z,43.17
2023-02-28T02:13:56.846Z,43.26
2023-02-28T02:16:46.501Z,42.85
2023-02-28T02:19:40.469Z,43.26
2023-02-28T02:22:16.970Z,43.77
2023-02-28T02:25:00.706Z,44.00
2023-02-28T02:28:05.679Z,43.47
2023-02-28T02:30:48.082Z,43.02
2023-02-28T02:33:18.516Z,42.27
2023-02-28T02:35:56.995Z,42.54
2023-02-28T02:38:38.965Z,42.59
2023-02-28T02:41:14.895Z,42.62
2023-02-28T02:43:59.266Z,42.71
2023-02-28T02:46:54.317Z,42.38
2023-02-28T02:49:36.021Z,42.62
2023-02-28T02:52:07.552Z,42.42
2023-02-28T02:54:38.483Z,42.87
2023-02-28T02:57:09.597Z,42.84
2023-02-28T02:59:39.863Z,41.93
2023-02-28T03:02:09.980Z,42.30
2023-02-28T03:04:43.473Z,40.93
2023-02-28T03:07:10.904Z,41.99
2023-02-28T03:09:38.796Z,41.28
2023-02-28T03:12:11.221Z,41.15
2023-02-28T03:14:41.889Z,40.52
2023-02-28T03:17:29.507Z,39.55
2023-02-28T03:20:21.836Z,38.91
2023-02-28T03:23:17.914Z,38.73
2023-02-28T03:25:56.890Z,38.62
2023-02-28T03:28:30.529Z,38.29
2023-02-28T03:31:20.611Z,37.94
2023-02-28T03:34:11.189Z,37.79
2023-02-28T03:37:00.864Z,37.47
2023-02-28T03:39:31.404Z,37.93
2023-02-28T03:42:02.128Z,37.59
2023-02-28T03:44:39.453Z,37.31
2023-02-28T03:47:37.604Z,37.72
2023-02-28T03:50:11.280Z,37.29
2023-02-28T03:52:46.039Z,37.27
2023-02-28T03:55:14.441Z,37.33
2023-02-28T03:58:09.237Z,37.47
2023-02-28T04:00:41.578Z,36.63
2023-02-28T04:03:09.608Z,37.36
2023-02-28T04:05:49.737Z,37.40
2023-02-28T04:08:17.562Z,37.61
2023-02-28T04:10:46.592Z,37.55
2023-02-28T04:13:13.962Z,37.58
2023-02-28T04:15:42.150Z,37.08
2023-02-28T04:18:09.604Z,37.13
2023-02-28T04:20:37.228Z,37.23
2023-02-28T04:23:05.151Z,36.90
2023-02-28T04:25:32.567Z,37.25
2023-02-28T04:27:59.914Z,37.66
2023-02-28T04:30:27.654Z,36.84
2023-02-28T04:32:55.061Z,37.14
2023-02-28T04:35:22.488Z,37.54
2023-02-28T04:37:50.174Z,37.46
2023-02-28T04:40:17.627Z,37.68
2023-02-28T04:42:45.023Z,37.82
2023-02-28T04:45:12.670Z,37.55
2023-02-28T04:47:40.238Z,36.98
2023-02-28T04:50:08.292Z,37.34
2023-02-28T04:52:35.997Z,37.70
2023-02-28T04:55:03.525Z,37.73
2023-02-28T04:57:31.024Z,37.70
2023-02-28T04:59:58.702Z,37.76
2023-02-28T05:02:26.195Z,37.44
2023-02-28T05:04:53.641Z,37.17
2023-02-28T05:07:21.343Z,37.85
2023-02-28T05:09:48.769Z,38.03
2023-02-28T05:12:16.944Z,37.70
2023-02-28T05:14:45.196Z,37.64
2023-02-28T05:17:12.547Z,37.81
2023-02-28T05:19:39.878Z,37.88
2023-02-28T05:22:14.446Z,37.36
2023-02-28T05:24:43.245Z,37.37
2023-02-28T05:27:11.446Z,37.83
2023-02-28T05:29:42.984Z,37.81
2023-02-28T05:32:12.110Z,37.58
2023-02-28T05:34:40.403Z,37.58
2023-02-28T05:37:12.401Z,37.59
2023-02-28T05:39:40.014Z,37.52
2023-02-28T05:42:07.670Z,37.36
2023-02-28T05:44:35.041Z,37.30
2023-02-28T05:47:02.876Z,37.58
2023-02-28T05:49:30.283Z,37.86
2023-02-28T05:51:57.729Z,38.14
2023-02-28T05:54:25.414Z,38.37
2023-02-28T05:56:52.805Z,38.46
2023-02-28T05:59:21.108Z,38.01
2023-02-28T06:01:52.591Z,38.91
2023-02-28T06:04:31.538Z,39.48
2023-02-28T06:06:59.661Z,38.80
2023-02-28T06:09:27.392Z,39.98
2023-02-28T06:11:55.178Z,38.66
2023-02-28T06:14:22.604Z,38.30
2023-02-28T06:16:50.450Z,37.47
2023-02-28T06:19:18.100Z,37.24
2023-02-28T06:21:45.509Z,37.65
2023-02-28T06:24:13.242Z,38.22
2023-02-28T06:26:40.656Z,38.74
2023-02-28T06:29:08.499Z,38.54
2023-02-28T06:31:36.277Z,38.15
2023-02-28T06:34:03.739Z,38.06
2023-02-28T06:36:31.421Z,37.82
2023-02-28T06:38:59.098Z,41.18
2023-02-28T06:41:27.672Z,39.22
2023-02-28T06:43:55.671Z,41.77
2023-02-28T06:46:24.357Z,38.38
2023-02-28T06:48:51.763Z,37.33
2023-02-28T06:51:25.270Z,36.83
2023-02-28T06:53:52.944Z,36.90
2023-02-28T06:56:21.350Z,37.08
2023-02-28T06:58:50.218Z,37.44
2023-02-28T07:01:18.225Z,37.38
2023-02-28T07:03:46.281Z,37.22
2023-02-28T07:06:13.732Z,37.25
2023-02-28T07:08:42.088Z,36.61
2023-02-28T07:11:09.523Z,36.67
2023-02-28T07:13:37.427Z,36.25
2023-02-28T07:16:07.179Z,35.89
2023-02-28T07:18:34.806Z,35.78
2023-02-28T07:21:07.598Z,35.65
2023-02-28T07:23:35.663Z,51.62
2023-02-28T07:26:03.078Z,35.90
2023-02-28T07:28:30.733Z,35.19
2023-02-28T07:30:58.403Z,34.66
2023-02-28T07:33:25.825Z,34.21
2023-02-28T07:35:53.248Z,34.48
2023-02-28T07:38:20.856Z,34.10
2023-02-28T07:40:48.261Z,34.05
2023-02-28T07:43:15.588Z,33.94
2023-02-28T07:45:43.226Z,33.92
2023-02-28T07:48:11.055Z,33.95
2023-02-28T07:50:38.837Z,33.23
2023-02-28T07:53:06.537Z,33.18
2023-02-28T07:55:33.970Z,32.56
2023-02-28T07:58:01.353Z,32.18
2023-02-28T08:00:30.112Z,32.59
2023-02-28T08:02:57.881Z,32.28
2023-02-28T08:05:25.397Z,32.75
2023-02-28T08:07:54.268Z,32.26
2023-02-28T08:10:22.113Z,31.75
2023-02-28T08:12:49.500Z,31.78
2023-02-28T08:15:16.977Z,31.87
2023-02-28T08:17:44.658Z,31.81
2023-02-28T08:20:12.388Z,32.08
2023-02-28T08:22:39.817Z,32.04
2023-02-28T08:25:08.376Z,32.07
2023-02-28T08:27:36.621Z,33.14
2023-02-28T08:30:04.649Z,32.62
2023-02-28T08:32:34.166Z,33.11
2023-02-28T08:35:02.834Z,33.46
2023-02-28T08:37:30.311Z,33.10
2023-02-28T08:39:58.068Z,33.21
2023-02-28T08:42:25.458Z,32.75
2023-02-28T08:44:52.947Z,33.08
2023-02-28T08:47:20.629Z,33.43
2023-02-28T08:49:48.038Z,33.26
2023-02-28T08:52:15.522Z,33.38
2023-02-28T08:54:43.185Z,33.44
2023-02-28T08:57:10.730Z,33.55
2023-02-28T08:59:38.094Z,33.74
2023-02-28T09:02:05.698Z,33.74
2023-02-28T09:04:34.806Z,34.30
2023-02-28T09:07:02.141Z,34.32
2023-02-28T09:09:29.784Z,34.32
2023-02-28T09:11:57.873Z,34.41
2023-02-28T09:14:25.331Z,34.45
2023-02-28T09:16:52.997Z,34.88
2023-02-28T09:19:20.486Z,34.59
2023-02-28T09:21:47.895Z,34.21
2023-02-28T09:24:16.326Z,33.91
2023-02-28T09:26:56.282Z,33.62
2023-02-28T09:29:31.980Z,33.09
2023-02-28T09:32:02.408Z,32.91
2023-02-28T09:34:32.637Z,33.06
2023-02-28T09:37:00.466Z,33.12
2023-02-28T09:39:28.064Z,33.18
2023-02-28T09:41:56.673Z,33.08
2023-02-28T09:44:33.158Z,33.17
2023-02-28T09:47:25.131Z,32.77
2023-02-28T09:49:52.832Z,32.65
2023-02-28T09:52:23.205Z,32.81
2023-02-28T09:54:50.730Z,32.70
2023-02-28T09:57:40.129Z,33.11
2023-02-28T10:00:32.917Z,32.65
2023-02-28T10:03:27.829Z,32.15
2023-02-28T10:06:15.638Z,32.59
2023-02-28T10:09:03.383Z,32.77
2023-02-28T10:11:33.812Z,32.89
2023-02-28T10:14:11.652Z,32.90
2023-02-28T10:16:47.325Z,32.49
2023-02-28T10:19:22.935Z,32.65
2023-02-28T10:22:00.448Z,32.71
2023-02-28T10:24:39.804Z,32.67
2023-02-28T10:27:25.232Z,33.29
2023-02-28T10:29:55.846Z,33.39
2023-02-28T10:32:29.807Z,33.90
2023-02-28T10:35:01.374Z,34.56
2023-02-28T10:37:29.417Z,33.80
2023-02-28T10:39:57.361Z,33.43
2023-02-28T10:42:29.580Z,32.93
2023-02-28T10:45:07.529Z,32.80
2023-02-28T10:47:37.545Z,32.48
2023-02-28T10:50:05.569Z,32.29
2023-02-28T10:52:38.624Z,32.66
2023-02-28T10:55:25.911Z,32.82
2023-02-28T10:57:53.542Z,32.61
2023-02-28T11:00:26.634Z,33.12
2023-02-28T11:02:54.039Z,33.23
2023-02-28T11:05:25.289Z,32.61
2023-02-28T11:07:55.228Z,32.60
2023-02-28T11:10:26.762Z,32.87
2023-02-28T11:12:59.731Z,32.78
2023-02-28T11:15:30.655Z,32.83
2023-02-28T11:18:04.534Z,33.12
2023-02-28T11:20:33.653Z,32.90
2023-02-28T11:23:03.582Z,32.77
2023-02-28T11:25:37.517Z,32.56
2023-02-28T11:28:07.681Z,32.45
2023-02-28T11:30:41.409Z,32.05
2023-02-28T11:33:29.803Z,32.11
2023-02-28T11:36:04.581Z,32.14
2023-02-28T11:38:35.333Z,32.04
2023-02-28T11:41:11.325Z,32.20
2023-02-28T11:43:52.082Z,32.16
2023-02-28T11:46:29.410Z,32.52
2023-02-28T11:49:18.832Z,32.07
2023-02-28T11:51:59.571Z,32.08
2023-02-28T11:54:49.083Z,31.95
2023-02-28T11:57:16.392Z,32.30
2023-02-28T11:59:56.649Z,32.60
2023-02-28T12:02:46.025Z,32.65
2023-02-28T12:05:24.055Z,32.65
2023-02-28T12:08:18.024Z,32.96
2023-02-28T12:11:01.544Z,32.68
2023-02-28T12:13:44.422Z,32.45
2023-02-28T12:16:24.438Z,32.43
2023-02-28T12:18:58.073Z,32.46
2023-02-28T12:21:41.408Z,32.37
2023-02-28T12:24:11.520Z,32.74
2023-02-28T12:26:41.224Z,32.38
2023-02-28T12:29:25.273Z,32.24
2023-02-28T12:32:09.281Z,32.22
2023-02-28T12:34:40.678Z,32.77
2023-02-28T12:37:16.050Z,32.66
2023-02-28T12:39:50.510Z,32.46
2023-02-28T12:42:30.525Z,32.83
2023-02-28T12:45:00.789Z,32.70
2023-02-28T12:47:28.666Z,32.91
2023-02-28T12:50:07.237Z,33.52
2023-02-28T12:53:00.679Z,33.23
2023-02-28T12:55:44.314Z,32.85
2023-02-28T12:58:17.056Z,33.23
2023-02-28T13:00:56.387Z,33.67
2023-02-28T13:03:42.101Z,33.90
2023-02-28T13:06:34.739Z,33.57
2023-02-28T13:09:16.622Z,34.02
2023-02-28T13:11:49.377Z,33.97
2023-02-28T13:14:28.690Z,33.87
2023-02-28T13:17:08.095Z,33.92
2023-02-28T13:19:39.029Z,34.06
2023-02-28T13:22:07.055Z,34.21
2023-02-28T13:24:41.637Z,34.31
2023-02-28T13:27:10.565Z,34.14
2023-02-28T13:29:41.373Z,34.28
2023-02-28T13:32:11.930Z,33.69
2023-02-28T13:34:50.437Z,33.29
2023-02-28T13:37:24.145Z,33.58
2023-02-28T13:39:54.382Z,33.36
2023-02-28T13:42:36.971Z,32.58
2023-02-28T13:45:04.362Z,33.67
2023-02-28T13:47:55.742Z,33.35
2023-02-28T13:50:30.814Z,33.51
2023-02-28T13:53:16.998Z,33.27
2023-02-28T13:55:50.015Z,33.70
2023-02-28T13:58:18.860Z,33.65
2023-02-28T14:00:56.347Z,33.99
2023-02-28T14:03:27.442Z,34.00
2023-02-28T14:06:16.915Z,34.65
2023-02-28T14:09:22.496Z,34.66
2023-02-28T14:11:50.103Z,34.52
2023-02-28T14:14:47.164Z,34.60
2023-02-28T14:17:16.273Z,34.94
2023-02-28T14:19:50.961Z,35.39
2023-02-28T14:22:54.018Z,35.33
2023-02-28T14:25:56.959Z,35.22
2023-02-28T14:28:53.786Z,35.27
2023-02-28T14:31:38.337Z,35.53
2023-02-28T14:34:24.551Z,35.52
2023-02-28T14:36:53.919Z,35.46
2023-02-28T14:39:23.772Z,35.38
2023-02-28T14:41:51.654Z,35.39
2023-02-28T14:44:24.620Z,35.57
2023-02-28T14:46:57.965Z,35.52
2023-02-28T14:49:33.732Z,35.43
2023-02-28T14:52:20.758Z,35.32
2023-02-28T14:55:00.329Z,35.15
2023-02-28T14:57:31.587Z,35.61
2023-02-28T15:00:11.549Z,35.24
2023-02-28T15:02:40.298Z,35.46
2023-02-28T15:05:10.831Z,35.43
2023-02-28T15:07:38.305Z,35.10
2023-02-28T15:10:08.559Z,35.18
2023-02-28T15:12:37.212Z,35.38
2023-02-28T15:15:05.111Z,34.93
2023-02-28T15:17:32.724Z,34.62
2023-02-28T15:20:00.762Z,35.09
2023-02-28T15:22:35.587Z,35.16
2023-02-28T15:25:06.848Z,35.60
2023-02-28T15:27:34.985Z,35.46
2023-02-28T15:30:08.853Z,35.28
2023-02-28T15:32:40.641Z,35.68
2023-02-28T15:35:38.158Z,35.90
2023-02-28T15:38:27.162Z,36.43
2023-02-28T15:40:56.923Z,36.55
2023-02-28T15:43:36.512Z,36.96
2023-02-28T15:46:12.196Z,36.75
2023-02-28T15:48:59.844Z,36.45
2023-02-28T15:51:34.681Z,36.42
2023-02-28T15:54:11.882Z,36.24
2023-02-28T15:56:44.615Z,36.44
2023-02-28T15:59:18.755Z,36.27
2023-02-28T16:01:46.839Z,36.47
2023-02-28T16:04:19.916Z,36.45
2023-02-28T16:06:53.997Z,36.45
2023-02-28T16:09:21.759Z,36.51
2023-02-28T16:11:50.990Z,36.61
2023-02-28T16:14:24.039Z,37.02
2023-02-28T16:16:56.733Z,37.43
2023-02-28T16:19:24.747Z,37.68
2023-02-28T16:21:52.531Z,37.56
2023-02-28T16:24:19.984Z,37.63
2023-02-28T16:26:49.519Z,37.68
2023-02-28T16:29:23.816Z,38.62
2023-02-28T16:31:51.231Z,38.32
2023-02-28T16:34:18.910Z,37.92
2023-02-28T16:36:49.834Z,38.05
2023-02-28T16:39:17.440Z,37.82
2023-02-28T16:41:46.202Z,38.32
2023-02-28T16:44:29.675Z,38.07
2023-02-28T16:46:57.439Z,38.20
2023-02-28T16:49:24.819Z,38.07
2023-02-28T16:51:52.240Z,38.05
2023-02-28T16:54:19.978Z,38.28
2023-02-28T16:56:48.357Z,38.63
2023-02-28T16:59:20.942Z,39.49
2023-02-28T17:01:48.780Z,38.68
2023-02-28T17:04:16.717Z,38.37
2023-02-28T17:06:44.298Z,38.59
2023-02-28T17:09:22.917Z,38.69
2023-02-28T17:11:51.934Z,38.63
2023-02-28T17:14:19.624Z,38.74
2023-02-28T17:16:48.191Z,38.64
2023-02-28T17:19:17.881Z,38.56
2023-02-28T17:21:45.740Z,38.47
2023-02-28T17:24:28.916Z,38.83
2023-02-28T17:26:58.184Z,38.66
2023-02-28T17:29:25.938Z,38.86
2023-02-28T17:31:53.417Z,38.84
2023-02-28T17:34:21.155Z,38.83
2023-02-28T17:36:50.420Z,38.68
2023-02-28T17:39:25.383Z,38.84
2023-02-28T17:41:53.826Z,39.29
2023-02-28T17:44:22.140Z,39.68
2023-02-28T17:46:50.461Z,39.48
2023-02-28T17:49:19.209Z,39.43
2023-02-28T17:51:47.394Z,39.39
2023-02-28T17:54:16.064Z,39.64
2023-02-28T17:56:44.807Z,39.65
2023-02-28T17:59:13.060Z,41.37
2023-02-28T18:01:40.597Z,40.38
2023-02-28T18:04:08.276Z,40.04
2023-02-28T18:06:47.057Z,39.88
2023-02-28T18:09:16.314Z,40.04
2023-02-28T18:11:46.053Z,40.07
2023-02-28T18:14:13.588Z,40.13
2023-02-28T18:16:41.421Z,40.01
2023-02-28T18:19:14.824Z,40.16
2023-02-28T18:21:43.870Z,40.27
2023-02-28T18:24:12.647Z,40.14
2023-02-28T18:26:40.456Z,40.26
2023-02-28T18:29:08.466Z,40.20
2023-02-28T18:31:36.163Z,40.51
2023-02-28T18:34:03.665Z,40.46
2023-02-28T18:36:31.656Z,40.60
2023-02-28T18:38:59.873Z,40.61
2023-02-28T18:41:28.984Z,40.79
2023-02-28T18:43:56.760Z,40.86
2023-02-28T18:46:24.196Z,40.82
2023-02-28T18:48:51.599Z,40.77
2023-02-28T18:51:22.833Z,40.86
2023-02-28T18:53:50.216Z,40.91
2023-02-28T18:56:19.568Z,40.63
2023-02-28T18:58:47.646Z,41.01
2023-02-28T19:01:23.791Z,41.33
2023-02-28T19:03:51.623Z,41.25
2023-02-28T19:06:52.234Z,40.09
2023-02-28T19:09:20.049Z,40.09
2023-02-28T19:11:47.486Z,41.43
2023-02-28T19:14:14.834Z,41.46
2023-02-28T19:16:42.565Z,41.54
2023-02-28T19:19:09.967Z,41.62
2023-02-28T19:21:37.452Z,41.56
2023-02-28T19:24:05.485Z,41.38
2023-02-28T19:26:32.904Z,41.65
2023-02-28T19:29:03.637Z,41.70
2023-02-28T19:31:31.686Z,41.33
2023-02-28T19:33:59.289Z,41.51
2023-02-28T19:36:27.501Z,41.60
2023-02-28T19:38:55.199Z,41.49
2023-02-28T19:41:22.746Z,41.82
2023-02-28T19:43:51.211Z,41.92
2023-02-28T19:46:20.140Z,42.02
2023-02-28T19:48:48.813Z,41.87
2023-02-28T19:53:49.037Z,42.09
2023-02-28T19:56:16.446Z,41.90
2023-02-28T19:58:43.829Z,42.05
2023-02-28T20:01:13.662Z,42.21
2023-02-28T20:03:41.806Z,41.96
2023-02-28T20:06:13.673Z,41.98
2023-02-28T20:08:41.832Z,42.29
2023-02-28T20:11:11.837Z,42.17
2023-02-28T20:13:39.330Z,42.23
2023-02-28T20:16:09.615Z,42.49
2023-02-28T20:18:41.063Z,42.12
2023-02-28T20:21:09.932Z,42.25
2023-02-28T20:23:40.985Z,42.35
2023-02-28T20:26:10.015Z,42.33
2023-02-28T20:28:38.248Z,42.24
2023-02-28T20:31:17.638Z,42.33
2023-02-28T20:33:46.927Z,42.70
2023-02-28T20:36:15.776Z,42.67
2023-02-28T20:38:43.689Z,42.50
2023-02-28T20:41:11.562Z,44.40
2023-02-28T20:43:39.877Z,58.96
2023-02-28T20:46:07.317Z,48.46
2023-02-28T20:48:38.426Z,44.74
2023-02-28T20:51:06.315Z,41.45
2023-02-28T20:53:35.163Z,40.63
2023-02-28T20:56:05.674Z,39.77
2023-02-28T20:58:35.582Z,39.93
2023-02-28T21:01:12.482Z,40.07
2023-02-28T21:03:40.125Z,41.10
2023-02-28T21:06:08.098Z,40.77
2023-02-28T21:08:37.045Z,41.00
2023-02-28T21:11:35.034Z,41.65
2023-02-28T21:14:05.158Z,41.64
2023-02-28T21:16:33.222Z,42.24
2023-02-28T21:19:06.813Z,42.51
2023-02-28T21:21:40.044Z,42.52
2023-02-28T21:24:07.836Z,42.46
2023-02-28T21:26:35.553Z,42.80
2023-02-28T21:29:03.377Z,42.91
2023-02-28T21:31:32.859Z,42.86
2023-02-28T21:34:01.888Z,42.73
2023-02-28T21:36:33.079Z,42.99
2023-02-28T21:39:04.963Z,42.82
2023-02-28T21:41:32.342Z,42.89
2023-02-28T21:43:59.720Z,42.87
2023-02-28T21:46:29.171Z,42.94
2023-02-28T21:48:57.469Z,42.96
2023-02-28T21:51:33.828Z,42.92
2023-02-28T21:54:01.564Z,42.90
2023-02-28T21:56:31.450Z,43.17
2023-02-28T21:59:02.822Z,43.56
2023-02-28T22:01:36.101Z,43.93
2023-02-28T22:04:06.291Z,43.61
2023-02-28T22:06:36.438Z,43.63
2023-02-28T22:09:07.448Z,43.87
2023-02-28T22:11:36.023Z,43.88
2023-02-28T22:14:03.690Z,43.85
2023-02-28T22:16:44.116Z,43.89
2023-02-28T22:19:16.626Z,43.86
2023-02-28T22:21:44.954Z,44.19
2023-02-28T22:24:12.308Z,44.00
2023-02-28T22:26:39.970Z,43.85
2023-02-28T22:29:07.559Z,43.93
2023-02-28T22:31:35.520Z,44.28
2023-02-28T22:34:09.386Z,44.39
2023-02-28T22:36:37.449Z,44.48
2023-02-28T22:39:05.249Z,44.22
2023-02-28T22:41:33.203Z,44.21
2023-02-28T22:44:02.375Z,44.02
2023-02-28T22:46:32.372Z,43.92
2023-02-28T22:49:01.133Z,43.74
2023-02-28T22:51:29.303Z,43.82
2023-02-28T22:53:58.120Z,43.71
2023-02-28T22:56:28.153Z,43.85
2023-02-28T22:58:57.506Z,44.33
2023-02-28T23:01:27.122Z,44.71
2023-02-28T23:03:54.912Z,44.40
2023-02-28T23:06:31.304Z,44.30
2023-02-28T23:09:02.204Z,44.47
2023-02-28T23:11:33.101Z,44.58
2023-02-28T23:14:01.180Z,44.77
2023-02-28T23:16:37.754Z,44.91
2023-02-28T23:19:26.572Z,44.88
2023-02-28T23:21:54.095Z,44.72
2023-02-28T23:24:23.909Z,44.81
2023-02-28T23:26:53.894Z,44.50
2023-02-28T23:29:23.117Z,44.12
2023-02-28T23:31:51.076Z,44.32
2023-02-28T23:34:26.123Z,44.84
2023-02-28T23:36:55.199Z,44.99
2023-02-28T23:39:22.985Z,44.95
2023-02-28T23:41:50.441Z,44.86
2023-02-28T23:44:18.222Z,44.83
2023-02-28T23:46:47.590Z,44.89
2023-02-28T23:49:15.850Z,44.23
2023-02-28T23:51:43.517Z,44.70
2023-02-28T23:54:11.039Z,44.73
2023-02-28T23:56:38.412Z,44.58
2023-02-28T23:59:06.336Z,44.39
